Mark L — WDC2718 — position and weather

sailwx.info

Track history (hours):
 
Tides and Currents Weather Stations Pressure Air Temp Water Temp Dewpoint Dewpoint Depression Visibility Wind Speed Wind Dir Waves Ship Positions

Mark L

Owner: Kirby Inland Marine, LP, Houston, TX. More information available from US FCC via Universal Licensing System and Coast Guard Vessel Documentation Center.

Last reported at 2018-Jul-16 14:00 UTC. Time now 2018-Jul-16 14:32 UTC.
Position N 30°04' W 093°16'.

Length 25 m.

Type: . MMSI: 366996760.

Date/timePositionNaut miles runAvg speedWind from/ knotsBaromVisibWave heightAir tempDewpointWater temp
2018-Jul-16 14:00N 30°04' W 093°16'0 0.0
2018-Jul-16 13:30N 30°04' W 093°16'0 0.0
2018-Jul-16 13:00N 30°04' W 093°16'0 0.0
2018-Jul-16 12:30N 30°04' W 093°16'0 0.0
2018-Jul-16 12:00N 30°04' W 093°16'0 0.0
2018-Jul-16 11:30N 30°04' W 093°16'0 0.0
2018-Jul-16 11:00N 30°04' W 093°16'0 0.0
2018-Jul-16 10:31N 30°04' W 093°16'0 0.0
2018-Jul-16 10:01N 30°04' W 093°16'0 0.0
2018-Jul-16 09:30N 30°04' W 093°16'0 0.0
2018-Jul-16 09:00N 30°04' W 093°16'0 0.0
2018-Jul-16 08:29N 30°04' W 093°16'1 1.1
2018-Jul-16 08:00N 30°04' W 093°16'0 0.0
2018-Jul-16 07:30N 30°04' W 093°16'0 1.0
2018-Jul-16 07:00N 30°03' W 093°16'1 1.5
2018-Jul-16 06:30N 30°02' W 093°16'0 0.1
2018-Jul-16 06:00N 30°02' W 093°16'0 0.0
2018-Jul-16 05:30N 30°02' W 093°16'0 0.0
2018-Jul-16 05:00N 30°02' W 093°16'0 0.0
2018-Jul-16 04:30N 30°02' W 093°16'0 0.0
2018-Jul-16 04:00N 30°02' W 093°16'1 2.0
2018-Jul-16 03:30N 30°02' W 093°15'1 2.9
2018-Jul-16 03:00N 30°01' W 093°14'2 4.3
2018-Jul-16 02:30N 29°59' W 093°12'2 3.8
2018-Jul-16 02:00N 29°57' W 093°11'0 0.1
2018-Jul-16 01:30N 29°57' W 093°11'0 0.0
2018-Jul-16 01:00N 29°57' W 093°11'0 0.0
2018-Jul-16 00:30N 29°57' W 093°11'0 0.0
2018-Jul-16 00:00N 29°57' W 093°11'0 0.0
2018-Jul-15 23:30N 29°57' W 093°11'0 0.0
2018-Jul-15 23:00N 29°57' W 093°11'0 0.0
2018-Jul-15 22:30N 29°57' W 093°11'0 0.0
2018-Jul-15 22:00N 29°57' W 093°11'0 0.0
2018-Jul-15 21:30N 29°57' W 093°11'0 0.0
2018-Jul-15 21:00N 29°57' W 093°11'0 0.0
2018-Jul-15 20:30N 29°57' W 093°11'0 0.0
2018-Jul-15 19:59N 29°57' W 093°11'0 0.0
2018-Jul-15 19:30N 29°57' W 093°11'0 0.0
2018-Jul-15 19:00N 29°57' W 093°11'0 0.0
2018-Jul-15 18:30N 29°57' W 093°11'0 0.0
2018-Jul-15 18:00N 29°57' W 093°11'0 0.0
2018-Jul-15 17:30N 29°57' W 093°11'0 0.0
2018-Jul-15 17:00N 29°57' W 093°11'0 0.0
2018-Jul-15 16:30N 29°57' W 093°11'0 0.0
2018-Jul-15 16:00N 29°57' W 093°11'0 0.0
2018-Jul-15 15:30N 29°57' W 093°11'0 0.0
2018-Jul-15 15:00N 29°57' W 093°11'0 0.0
2018-Jul-15 14:30N 29°57' W 093°11'0 0.0
2018-Jul-15 14:00N 29°57' W 093°11'0 0.0
2018-Jul-15 13:30N 29°57' W 093°11'0 0.3
2018-Jul-15 13:00N 29°57' W 093°11'1 2.4
2018-Jul-15 12:30N 29°56' W 093°10'2 3.1
2018-Jul-15 12:00N 29°56' W 093°08'3 0.9
2018-Jul-15 08:21N 29°56' W 093°04'0 0.0
2018-Jul-15 04:27N 29°56' W 093°04'36 1.6
2018-Jul-14 06:10N 29°52' W 092°23'2 3.7
2018-Jul-14 05:45N 29°51' W 092°22'1 3.8
2018-Jul-14 05:30N 29°51' W 092°21'2 4.0
2018-Jul-14 04:58N 29°50' W 092°18'2 3.8
2018-Jul-14 04:30N 29°49' W 092°17'2 3.4
2018-Jul-14 04:00N 29°48' W 092°15'2 3.1
2018-Jul-14 03:30N 29°48' W 092°13'2 3.3
2018-Jul-14 03:00N 29°47' W 092°12'1 1.1
2018-Jul-14 02:29N 29°47' W 092°11'0 0.0
2018-Jul-14 02:00N 29°47' W 092°11'0 0.0
2018-Jul-14 01:30N 29°47' W 092°11'0 0.0
2018-Jul-14 01:00N 29°47' W 092°11'0 0.0
2018-Jul-14 00:30N 29°47' W 092°11'0 0.9
2018-Jul-14 00:00N 29°47' W 092°11'1 2.6
2018-Jul-13 23:30N 29°47' W 092°09'3 5.1
2018-Jul-13 23:00N 29°48' W 092°06'3 5.1
2018-Jul-13 22:30N 29°49' W 092°04'3 5.1
2018-Jul-13 22:00N 29°49' W 092°01'2 5.0
2018-Jul-13 21:30N 29°50' W 091°58'2 4.7
2018-Jul-13 20:59N 29°51' W 091°55'  
Track history (hours):
 
Tides and Currents Weather Stations Pressure Air Temp Water Temp Dewpoint Dewpoint Depression Visibility Wind Speed Wind Dir Waves Ship Positions

Mark L

Owner: Kirby Inland Marine, LP, Houston, TX. More information available from US FCC via Universal Licensing System and Coast Guard Vessel Documentation Center.

Last reported at 2018-Jul-16 14:00 UTC. Time now 2018-Jul-16 14:32 UTC.
Position N 30°04' W 093°16'.

Length 25 m.

Type: . MMSI: 366996760.

Date/timePositionNaut miles runAvg speedWind from/ knotsBaromVisibWave heightAir tempDewpointWater temp
2018-Jul-16 14:00N 30°04' W 093°16'0 0.0
2018-Jul-16 13:30N 30°04' W 093°16'0 0.0
2018-Jul-16 13:00N 30°04' W 093°16'0 0.0
2018-Jul-16 12:30N 30°04' W 093°16'0 0.0
2018-Jul-16 12:00N 30°04' W 093°16'0 0.0
2018-Jul-16 11:30N 30°04' W 093°16'0 0.0
2018-Jul-16 11:00N 30°04' W 093°16'0 0.0
2018-Jul-16 10:31N 30°04' W 093°16'0 0.0
2018-Jul-16 10:01N 30°04' W 093°16'0 0.0
2018-Jul-16 09:30N 30°04' W 093°16'0 0.0
2018-Jul-16 09:00N 30°04' W 093°16'0 0.0
2018-Jul-16 08:29N 30°04' W 093°16'1 1.1
2018-Jul-16 08:00N 30°04' W 093°16'0 0.0
2018-Jul-16 07:30N 30°04' W 093°16'0 1.0
2018-Jul-16 07:00N 30°03' W 093°16'1 1.5
2018-Jul-16 06:30N 30°02' W 093°16'0 0.1
2018-Jul-16 06:00N 30°02' W 093°16'0 0.0
2018-Jul-16 05:30N 30°02' W 093°16'0 0.0
2018-Jul-16 05:00N 30°02' W 093°16'0 0.0
2018-Jul-16 04:30N 30°02' W 093°16'0 0.0
2018-Jul-16 04:00N 30°02' W 093°16'1 2.0
2018-Jul-16 03:30N 30°02' W 093°15'1 2.9
2018-Jul-16 03:00N 30°01' W 093°14'2 4.3
2018-Jul-16 02:30N 29°59' W 093°12'2 3.8
2018-Jul-16 02:00N 29°57' W 093°11'0 0.1
2018-Jul-16 01:30N 29°57' W 093°11'0 0.0
2018-Jul-16 01:00N 29°57' W 093°11'0 0.0
2018-Jul-16 00:30N 29°57' W 093°11'0 0.0
2018-Jul-16 00:00N 29°57' W 093°11'0 0.0
2018-Jul-15 23:30N 29°57' W 093°11'0 0.0
2018-Jul-15 23:00N 29°57' W 093°11'0 0.0
2018-Jul-15 22:30N 29°57' W 093°11'0 0.0
2018-Jul-15 22:00N 29°57' W 093°11'0 0.0
2018-Jul-15 21:30N 29°57' W 093°11'0 0.0
2018-Jul-15 21:00N 29°57' W 093°11'0 0.0
2018-Jul-15 20:30N 29°57' W 093°11'0 0.0
2018-Jul-15 19:59N 29°57' W 093°11'0 0.0
2018-Jul-15 19:30N 29°57' W 093°11'0 0.0
2018-Jul-15 19:00N 29°57' W 093°11'0 0.0
2018-Jul-15 18:30N 29°57' W 093°11'0 0.0
2018-Jul-15 18:00N 29°57' W 093°11'0 0.0
2018-Jul-15 17:30N 29°57' W 093°11'0 0.0
2018-Jul-15 17:00N 29°57' W 093°11'0 0.0
2018-Jul-15 16:30N 29°57' W 093°11'0 0.0
2018-Jul-15 16:00N 29°57' W 093°11'0 0.0
2018-Jul-15 15:30N 29°57' W 093°11'0 0.0
2018-Jul-15 15:00N 29°57' W 093°11'0 0.0
2018-Jul-15 14:30N 29°57' W 093°11'0 0.0
2018-Jul-15 14:00N 29°57' W 093°11'0 0.0
2018-Jul-15 13:30N 29°57' W 093°11'0 0.3
2018-Jul-15 13:00N 29°57' W 093°11'1 2.4
2018-Jul-15 12:30N 29°56' W 093°10'2 3.1
2018-Jul-15 12:00N 29°56' W 093°08'3 0.9
2018-Jul-15 08:21N 29°56' W 093°04'0 0.0
2018-Jul-15 04:27N 29°56' W 093°04'36 1.6
2018-Jul-14 06:10N 29°52' W 092°23'2 3.7
2018-Jul-14 05:45N 29°51' W 092°22'1 3.8
2018-Jul-14 05:30N 29°51' W 092°21'2 4.0
2018-Jul-14 04:58N 29°50' W 092°18'2 3.8
2018-Jul-14 04:30N 29°49' W 092°17'2 3.4
2018-Jul-14 04:00N 29°48' W 092°15'2 3.1
2018-Jul-14 03:30N 29°48' W 092°13'2 3.3
2018-Jul-14 03:00N 29°47' W 092°12'1 1.1
2018-Jul-14 02:29N 29°47' W 092°11'0 0.0
2018-Jul-14 02:00N 29°47' W 092°11'0 0.0
2018-Jul-14 01:30N 29°47' W 092°11'0 0.0
2018-Jul-14 01:00N 29°47' W 092°11'0 0.0
2018-Jul-14 00:30N 29°47' W 092°11'0 0.9
2018-Jul-14 00:00N 29°47' W 092°11'1 2.6
2018-Jul-13 23:30N 29°47' W 092°09'3 5.1
2018-Jul-13 23:00N 29°48' W 092°06'3 5.1
2018-Jul-13 22:30N 29°49' W 092°04'3 5.1
2018-Jul-13 22:00N 29°49' W 092°01'2 5.0
2018-Jul-13 21:30N 29°50' W 091°58'2 4.7
2018-Jul-13 20:59N 29°51' W 091°55'  

Dump ship's entire track history